Time;durP1;ratioP1;P1;durP2;ratioP2;P2;SDS_P1;SDS_P2;PMS_P1;PMS_P2;Temp;Humidity;BMP_temperature;BMP_pressure;BME280_temperature;BME280_humidity;BME280_pressure;Samples;Min_cycle;Max_cycle;Signal;HPM_P1;HPM_P2
2021/12/06 00:00:11;;;;;;;4.50;2.05;;;;;;;;;;5057655;28;20037;-90
2021/12/06 00:02:37;;;;;;;4.05;2.25;;;;;;;;;;5041232;28;20123;-89
2021/12/06 00:05:02;;;;;;;4.03;1.90;;;;;;;;;;5056067;28;20067;-89
2021/12/06 00:07:27;;;;;;;4.05;2.22;;;;;;;;;;5056792;28;20033;-89
2021/12/06 00:09:53;;;;;;;3.67;2.00;;;;;;;;;;5055236;28;20071;-89
2021/12/06 00:12:18;;;;;;;4.22;2.20;;;;;;;;;;5055699;28;20029;-89
2021/12/06 00:14:44;;;;;;;3.70;1.90;;;;;;;;;;5057037;28;20049;-89
2021/12/06 00:17:10;;;;;;;4.35;2.20;;;;;;;;;;5055740;28;20025;-88
2021/12/06 00:19:35;;;;;;;4.13;1.98;;;;;;;;;;5056367;28;20048;-89
2021/12/06 00:22:00;;;;;;;4.45;2.08;;;;;;;;;;5039693;28;20045;-89
2021/12/06 00:24:26;;;;;;;3.85;2.00;;;;;;;;;;5040551;28;20029;-89
2021/12/06 00:26:51;;;;;;;3.67;2.00;;;;;;;;;;5060186;28;20068;-89
2021/12/06 00:29:18;;;;;;;3.20;2.10;;;;;;;;;;5061792;28;20036;-89
2021/12/06 00:31:43;;;;;;;3.13;2.03;;;;;;;;;;5061915;28;20028;-89
2021/12/06 00:34:10;;;;;;;5.15;2.20;;;;;;;;;;5045916;28;20111;-89
2021/12/06 00:36:37;;;;;;;4.60;2.50;;;;;;;;;;5060569;28;20451;-89
2021/12/06 00:39:03;;;;;;;3.75;2.65;;;;;;;;;;5043998;28;20206;-90
2021/12/06 00:41:28;;;;;;;5.18;2.58;;;;;;;;;;5043889;28;20036;-89
2021/12/06 00:43:54;;;;;;;5.68;2.22;;;;;;;;;;5060558;28;20025;-89
2021/12/06 00:46:20;;;;;;;4.20;2.40;;;;;;;;;;5060729;28;20103;-89
2021/12/06 00:48:45;;;;;;;5.35;2.50;;;;;;;;;;5059648;28;20044;-89
2021/12/06 00:51:12;;;;;;;3.65;2.30;;;;;;;;;;5041146;28;20029;-88
2021/12/06 00:53:38;;;;;;;3.72;2.00;;;;;;;;;;5040919;28;20416;-89
2021/12/06 00:56:04;;;;;;;4.25;1.90;;;;;;;;;;5057561;28;20040;-88
2021/12/06 00:58:29;;;;;;;4.55;2.00;;;;;;;;;;5041271;28;20400;-88
2021/12/06 01:00:54;;;;;;;3.38;2.20;;;;;;;;;;5043403;28;20078;-90
2021/12/06 01:03:21;;;;;;;5.95;2.00;;;;;;;;;;5042841;28;20044;-88
2021/12/06 01:05:47;;;;;;;6.80;2.10;;;;;;;;;;5057935;28;20028;-88
2021/12/06 01:08:12;;;;;;;3.05;1.80;;;;;;;;;;5058132;28;20120;-88
2021/12/06 01:10:37;;;;;;;5.28;2.00;;;;;;;;;;5057085;28;20029;-88
2021/12/06 01:13:02;;;;;;;4.57;1.92;;;;;;;;;;5058436;28;20546;-89
2021/12/06 01:15:28;;;;;;;5.53;2.30;;;;;;;;;;5057892;28;20132;-88
2021/12/06 01:17:53;;;;;;;4.75;2.30;;;;;;;;;;5056833;28;20041;-88
2021/12/06 01:20:23;;;;;;;2.70;2.00;;;;;;;;;;5039806;28;20423;-88
2021/12/06 01:22:56;;;;;;;3.03;2.05;;;;;;;;;;5056429;28;20059;-88
2021/12/06 01:25:52;;;;;;;5.03;2.20;;;;;;;;;;5056832;28;20029;-88
2021/12/06 01:31:30;;;;;;;6.38;2.15;;;;;;;;;;5038010;28;20431;-89
2021/12/06 01:41:33;;;;;;;4.90;2.70;;;;;;;;;;5056570;28;20124;-89
2021/12/06 01:43:58;;;;;;;7.07;3.28;;;;;;;;;;5055862;28;20477;-89
2021/12/06 01:46:24;;;;;;;6.10;2.92;;;;;;;;;;5039807;28;20080;-89
2021/12/06 01:48:49;;;;;;;5.45;3.20;;;;;;;;;;5056143;28;20033;-88
2021/12/06 01:51:15;;;;;;;5.20;3.13;;;;;;;;;;5039772;28;20258;-88
2021/12/06 01:53:40;;;;;;;7.70;3.25;;;;;;;;;;5057331;28;20033;-88
2021/12/06 01:56:06;;;;;;;4.68;2.97;;;;;;;;;;5039673;28;20036;-89
2021/12/06 01:58:31;;;;;;;5.53;2.97;;;;;;;;;;5038742;28;20071;-88
2021/12/06 02:00:56;;;;;;;6.85;2.90;;;;;;;;;;5039415;28;20037;-89
2021/12/06 02:03:29;;;;;;;5.17;2.93;;;;;;;;;;5056093;28;20025;-88
2021/12/06 02:05:54;;;;;;;5.28;2.90;;;;;;;;;;5039156;28;20286;-88
2021/12/06 02:08:23;;;;;;;5.10;3.05;;;;;;;;;;5055862;28;20119;-88
2021/12/06 02:10:48;;;;;;;5.03;3.30;;;;;;;;;;5055703;28;20492;-88
2021/12/06 02:13:18;;;;;;;6.13;3.10;;;;;;;;;;5039953;28;20036;-88
2021/12/06 02:15:51;;;;;;;5.72;2.92;;;;;;;;;;5054757;28;20045;-89
2021/12/06 02:19:01;;;;;;;6.55;3.30;;;;;;;;;;5055012;28;20028;-89
2021/12/06 02:21:13;;;;;;;8.10;3.50;;;;;;;;;;5054022;28;20037;-88
2021/12/06 02:23:38;;;;;;;5.50;2.97;;;;;;;;;;5038671;28;20033;-89
2021/12/06 02:26:04;;;;;;;5.72;2.95;;;;;;;;;;5055568;28;20029;-88
2021/12/06 02:28:29;;;;;;;5.30;3.22;;;;;;;;;;5055650;28;20441;-88
2021/12/06 02:30:57;;;;;;;5.78;3.20;;;;;;;;;;5055446;28;20481;-89
2021/12/06 02:33:24;;;;;;;7.53;3.22;;;;;;;;;;5056501;28;20039;-89
2021/12/06 02:35:49;;;;;;;5.75;3.42;;;;;;;;;;5038644;28;20048;-88
2021/12/06 02:38:14;;;;;;;7.63;3.47;;;;;;;;;;5054895;28;20374;-87
2021/12/06 02:40:40;;;;;;;7.07;4.05;;;;;;;;;;5038523;28;20033;-88
2021/12/06 02:43:06;;;;;;;6.43;3.78;;;;;;;;;;5055293;28;20071;-88
2021/12/06 02:45:32;;;;;;;8.05;4.10;;;;;;;;;;5055096;28;20028;-88
2021/12/06 02:47:57;;;;;;;7.97;3.85;;;;;;;;;;5054937;28;20028;-88
2021/12/06 02:50:28;;;;;;;6.82;3.45;;;;;;;;;;5039204;28;20037;-88
2021/12/06 02:52:55;;;;;;;7.25;3.88;;;;;;;;;;5056399;28;20115;-88
2021/12/06 02:55:36;;;;;;;8.35;4.13;;;;;;;;;;5037759;28;20057;-88
2021/12/06 02:58:13;;;;;;;6.45;3.80;;;;;;;;;;5054252;28;20033;-88
2021/12/06 03:00:39;;;;;;;7.15;3.85;;;;;;;;;;5037883;28;20128;-88
2021/12/06 03:03:05;;;;;;;7.43;3.80;;;;;;;;;;5038727;28;20056;-88
2021/12/06 03:05:30;;;;;;;6.40;4.05;;;;;;;;;;5054638;28;20476;-88
2021/12/06 03:07:59;;;;;;;6.32;3.70;;;;;;;;;;5055928;28;20032;-88
2021/12/06 03:10:26;;;;;;;5.05;3.30;;;;;;;;;;5038450;28;20079;-88
2021/12/06 03:12:51;;;;;;;6.30;3.70;;;;;;;;;;5055873;28;20021;-88
2021/12/06 03:15:17;;;;;;;5.32;3.42;;;;;;;;;;5037151;28;20102;-88
2021/12/06 03:17:42;;;;;;;5.20;3.13;;;;;;;;;;5054060;28;20476;-88
2021/12/06 03:20:12;;;;;;;4.95;3.03;;;;;;;;;;5054217;28;20033;-88
2021/12/06 03:22:38;;;;;;;5.60;3.25;;;;;;;;;;5055712;28;20036;-89
2021/12/06 03:25:04;;;;;;;7.00;3.30;;;;;;;;;;5037921;28;20048;-89
2021/12/06 03:27:29;;;;;;;5.03;2.95;;;;;;;;;;5054385;28;20036;-88
2021/12/06 03:29:55;;;;;;;5.07;2.90;;;;;;;;;;5054609;28;20485;-88
2021/12/06 03:32:22;;;;;;;5.22;3.15;;;;;;;;;;5037422;28;20032;-88
2021/12/06 03:34:47;;;;;;;6.18;3.70;;;;;;;;;;5054294;28;20441;-88
2021/12/06 03:37:13;;;;;;;5.35;3.00;;;;;;;;;;5038239;28;20029;-87
2021/12/06 03:39:39;;;;;;;4.40;2.80;;;;;;;;;;5038098;28;20401;-89
2021/12/06 03:42:07;;;;;;;5.20;3.25;;;;;;;;;;5038642;28;20072;-89
2021/12/06 03:44:33;;;;;;;6.68;3.35;;;;;;;;;;5054494;28;20479;-88
2021/12/06 03:46:59;;;;;;;5.35;3.60;;;;;;;;;;5037253;28;20048;-88
2021/12/06 03:49:25;;;;;;;8.27;3.42;;;;;;;;;;5037319;28;20036;-88
2021/12/06 03:51:50;;;;;;;4.85;2.88;;;;;;;;;;5055224;28;20025;-88
2021/12/06 03:54:19;;;;;;;5.03;3.17;;;;;;;;;;5038242;28;20479;-88
2021/12/06 03:56:44;;;;;;;6.95;3.60;;;;;;;;;;5037454;28;20485;-87
2021/12/06 03:59:10;;;;;;;5.85;3.33;;;;;;;;;;5036633;28;20098;-88
2021/12/06 04:01:35;;;;;;;5.95;3.30;;;;;;;;;;5054220;28;20041;-89
2021/12/06 04:04:01;;;;;;;5.40;2.83;;;;;;;;;;5053229;28;20025;-88
2021/12/06 04:06:26;;;;;;;6.32;2.97;;;;;;;;;;5053729;28;20035;-89
2021/12/06 04:08:52;;;;;;;8.05;3.58;;;;;;;;;;5037491;28;20029;-88
2021/12/06 04:11:18;;;;;;;7.63;3.30;;;;;;;;;;5037630;28;20033;-88
2021/12/06 04:13:45;;;;;;;5.00;2.88;;;;;;;;;;5053840;28;20041;-88
2021/12/06 04:16:10;;;;;;;5.28;3.20;;;;;;;;;;5053503;28;20041;-88
2021/12/06 04:18:37;;;;;;;5.47;3.00;;;;;;;;;;5037154;28;20036;-88
2021/12/06 04:21:04;;;;;;;5.65;3.40;;;;;;;;;;5037598;28;20033;-88
2021/12/06 04:23:30;;;;;;;7.65;3.88;;;;;;;;;;5053818;28;20411;-88
2021/12/06 04:25:56;;;;;;;5.40;3.10;;;;;;;;;;5037065;28;20033;-88
2021/12/06 04:28:23;;;;;;;5.47;3.20;;;;;;;;;;5037605;28;20037;-88
2021/12/06 04:30:49;;;;;;;5.78;3.30;;;;;;;;;;5037265;28;20033;-89
2021/12/06 04:33:16;;;;;;;5.05;3.28;;;;;;;;;;5053814;28;20041;-88
2021/12/06 04:35:44;;;;;;;5.95;3.40;;;;;;;;;;5036818;28;20124;-88
2021/12/06 04:38:09;;;;;;;7.18;3.67;;;;;;;;;;5054148;28;20496;-88
2021/12/06 04:40:34;;;;;;;6.15;3.42;;;;;;;;;;5053837;28;20396;-88
2021/12/06 04:43:01;;;;;;;7.28;3.40;;;;;;;;;;5053593;28;20068;-88
2021/12/06 04:45:27;;;;;;;6.18;3.28;;;;;;;;;;5053356;28;20037;-88
2021/12/06 04:47:52;;;;;;;5.57;3.08;;;;;;;;;;5036938;28;20044;-87
2021/12/06 04:50:18;;;;;;;6.85;3.40;;;;;;;;;;5053149;28;20048;-89
2021/12/06 04:52:44;;;;;;;5.85;3.17;;;;;;;;;;5053567;28;20515;-88
2021/12/06 04:55:10;;;;;;;5.97;3.03;;;;;;;;;;5053297;28;20033;-88
2021/12/06 04:57:35;;;;;;;5.68;3.22;;;;;;;;;;5053750;28;20036;-88
2021/12/06 05:00:01;;;;;;;5.60;3.50;;;;;;;;;;5036920;28;20033;-88
2021/12/06 05:02:28;;;;;;;6.70;3.40;;;;;;;;;;5053421;28;20037;-88
2021/12/06 05:04:54;;;;;;;5.25;3.15;;;;;;;;;;5053164;28;20033;-88
2021/12/06 05:07:19;;;;;;;5.47;3.35;;;;;;;;;;5036594;28;20060;-88
2021/12/06 05:09:45;;;;;;;8.85;3.45;;;;;;;;;;5038383;28;20028;-90
2021/12/06 05:12:12;;;;;;;5.40;3.15;;;;;;;;;;5059756;28;20128;-88
2021/12/06 05:14:38;;;;;;;4.88;3.05;;;;;;;;;;5040707;28;20073;-88
2021/12/06 05:17:03;;;;;;;5.55;3.42;;;;;;;;;;5057225;28;20166;-87
2021/12/06 05:19:29;;;;;;;7.43;4.30;;;;;;;;;;5057441;28;20033;-87
2021/12/06 05:21:55;;;;;;;7.05;3.78;;;;;;;;;;5041392;28;20047;-88
2021/12/06 05:24:21;;;;;;;5.57;3.40;;;;;;;;;;5057788;28;20021;-88
2021/12/06 05:26:48;;;;;;;6.18;3.42;;;;;;;;;;5057210;28;20036;-88
2021/12/06 05:29:14;;;;;;;6.20;3.80;;;;;;;;;;5056747;28;20040;-88
2021/12/06 05:31:41;;;;;;;5.70;3.42;;;;;;;;;;5056887;28;20021;-88
2021/12/06 05:34:11;;;;;;;7.25;4.22;;;;;;;;;;5056593;28;20086;-88
2021/12/06 05:36:36;;;;;;;9.38;4.00;;;;;;;;;;5057567;28;20116;-89
2021/12/06 05:39:03;;;;;;;7.30;4.32;;;;;;;;;;5057267;28;20079;-88
2021/12/06 05:41:28;;;;;;;7.63;4.30;;;;;;;;;;5056600;28;20033;-88
2021/12/06 05:43:53;;;;;;;7.38;4.47;;;;;;;;;;5039646;28;20511;-88
2021/12/06 05:46:19;;;;;;;8.30;4.50;;;;;;;;;;5057228;28;20469;-88
2021/12/06 05:48:44;;;;;;;8.63;4.00;;;;;;;;;;5057728;28;20029;-88
2021/12/06 05:51:09;;;;;;;9.93;4.80;;;;;;;;;;5040225;28;20491;-88
2021/12/06 05:53:35;;;;;;;9.55;4.53;;;;;;;;;;5038900;28;20449;-88
2021/12/06 05:56:00;;;;;;;7.80;4.88;;;;;;;;;;5055999;28;20040;-87
2021/12/06 05:58:28;;;;;;;9.90;5.13;;;;;;;;;;5057367;28;20120;-88
2021/12/06 06:00:54;;;;;;;14.43;7.22;;;;;;;;;;5055810;28;20086;-88
2021/12/06 06:03:19;;;;;;;14.02;7.07;;;;;;;;;;5056907;28;20029;-88
2021/12/06 06:05:44;;;;;;;11.63;5.40;;;;;;;;;;5056221;28;20029;-88
2021/12/06 06:08:10;;;;;;;10.90;5.45;;;;;;;;;;5038296;28;20025;-88
2021/12/06 06:10:35;;;;;;;8.35;5.05;;;;;;;;;;5039254;28;20029;-88
2021/12/06 06:13:00;;;;;;;13.05;5.80;;;;;;;;;;5056858;28;20025;-88
2021/12/06 06:15:26;;;;;;;11.50;5.70;;;;;;;;;;5055407;28;20052;-88
2021/12/06 06:17:52;;;;;;;14.93;6.32;;;;;;;;;;5056987;28;20009;-87
2021/12/06 06:20:17;;;;;;;12.15;6.05;;;;;;;;;;5039167;28;20071;-87
2021/12/06 06:22:42;;;;;;;10.98;6.03;;;;;;;;;;5037994;28;20123;-88
2021/12/06 06:25:08;;;;;;;19.23;6.50;;;;;;;;;;5055426;28;20511;-88
2021/12/06 06:27:33;;;;;;;9.25;5.15;;;;;;;;;;5055642;28;20037;-87
2021/12/06 06:29:58;;;;;;;16.52;5.47;;;;;;;;;;5056795;28;20029;-87
2021/12/06 06:32:23;;;;;;;10.13;5.22;;;;;;;;;;5055292;28;20066;-87
2021/12/06 06:34:49;;;;;;;6.72;4.10;;;;;;;;;;5054940;28;20554;-86
2021/12/06 06:37:14;;;;;;;9.23;3.95;;;;;;;;;;5055994;28;20037;-87
2021/12/06 06:39:39;;;;;;;8.23;4.13;;;;;;;;;;5054904;28;20079;-87
2021/12/06 06:42:05;;;;;;;9.20;5.63;;;;;;;;;;5055143;28;20446;-88
2021/12/06 06:44:30;;;;;;;11.10;6.03;;;;;;;;;;5056105;28;20431;-87
2021/12/06 06:46:55;;;;;;;10.95;6.35;;;;;;;;;;5054984;28;20045;-89
2021/12/06 06:49:21;;;;;;;14.70;7.45;;;;;;;;;;5055709;28;20476;-87
2021/12/06 06:51:46;;;;;;;12.57;6.47;;;;;;;;;;5055845;28;20059;-88
2021/12/06 06:54:11;;;;;;;6.65;3.35;;;;;;;;;;5055347;28;20496;-87
2021/12/06 06:56:37;;;;;;;39.47;5.38;;;;;;;;;;5056144;28;20037;-87
2021/12/06 06:59:02;;;;;;;11.43;6.70;;;;;;;;;;5054750;28;20041;-88
2021/12/06 07:01:27;;;;;;;14.32;6.63;;;;;;;;;;5056296;28;20076;-89
2021/12/06 07:03:54;;;;;;;11.00;5.72;;;;;;;;;;5055160;28;20040;-88
2021/12/06 07:06:19;;;;;;;15.75;4.93;;;;;;;;;;5054363;28;20090;-87
2021/12/06 07:08:44;;;;;;;10.32;5.30;;;;;;;;;;5054645;28;20123;-88
2021/12/06 07:11:10;;;;;;;9.95;5.55;;;;;;;;;;5054907;28;20037;-88
2021/12/06 07:13:38;;;;;;;13.00;6.55;;;;;;;;;;5038729;28;20029;-88
2021/12/06 07:16:03;;;;;;;10.65;5.53;;;;;;;;;;5054537;28;20055;-88
2021/12/06 07:18:29;;;;;;;9.32;5.22;;;;;;;;;;5056052;28;20028;-88
2021/12/06 07:20:54;;;;;;;11.10;5.53;;;;;;;;;;5055223;28;20029;-88
2021/12/06 07:23:19;;;;;;;17.92;9.45;;;;;;;;;;5056404;28;20123;-87
2021/12/06 07:25:45;;;;;;;17.40;8.70;;;;;;;;;;5055686;28;20048;-88
2021/12/06 07:28:10;;;;;;;18.23;8.55;;;;;;;;;;5038184;28;20072;-89
2021/12/06 07:30:35;;;;;;;16.55;8.18;;;;;;;;;;5038011;28;20037;-88
2021/12/06 07:33:01;;;;;;;21.92;9.35;;;;;;;;;;5055027;28;20086;-88
2021/12/06 07:35:29;;;;;;;12.23;7.07;;;;;;;;;;5054486;28;20539;-89
2021/12/06 07:37:54;;;;;;;13.43;6.95;;;;;;;;;;5054060;28;20105;-89
2021/12/06 07:40:20;;;;;;;16.15;7.22;;;;;;;;;;5038679;28;20357;-89
2021/12/06 07:42:45;;;;;;;13.48;6.88;;;;;;;;;;5054667;28;20048;-88
2021/12/06 07:45:10;;;;;;;12.40;5.82;;;;;;;;;;5054357;28;20033;-89
2021/12/06 07:47:37;;;;;;;8.45;4.45;;;;;;;;;;5037959;28;20127;-87
2021/12/06 07:50:02;;;;;;;8.90;4.88;;;;;;;;;;5055471;28;20028;-77
2021/12/06 07:52:28;;;;;;;13.52;6.72;;;;;;;;;;5054160;28;20484;-78
2021/12/06 07:54:58;;;;;;;11.15;6.13;;;;;;;;;;5056318;28;20041;-86
2021/12/06 07:57:24;;;;;;;7.55;4.05;;;;;;;;;;5057875;28;20043;-86
2021/12/06 07:59:49;;;;;;;7.32;4.22;;;;;;;;;;5057841;28;20036;-86
2021/12/06 08:02:14;;;;;;;9.65;4.05;;;;;;;;;;5059551;28;20037;-86
2021/12/06 08:04:40;;;;;;;6.10;3.92;;;;;;;;;;5058419;28;20033;-86
2021/12/06 08:07:05;;;;;;;7.10;4.47;;;;;;;;;;5053860;28;20048;-87
2021/12/06 08:09:30;;;;;;;7.10;4.30;;;;;;;;;;5056137;28;20118;-87
2021/12/06 08:11:56;;;;;;;7.47;4.47;;;;;;;;;;5057664;28;20025;-87
2021/12/06 08:14:21;;;;;;;9.30;5.00;;;;;;;;;;5056259;28;20438;-86
2021/12/06 08:16:46;;;;;;;6.80;4.65;;;;;;;;;;5055927;28;20036;-86
2021/12/06 08:19:12;;;;;;;7.55;4.50;;;;;;;;;;5056545;28;20129;-85
2021/12/06 08:21:37;;;;;;;8.95;5.00;;;;;;;;;;5056329;28;20368;-86
2021/12/06 08:24:02;;;;;;;9.25;4.85;;;;;;;;;;5023455;28;20040;-87
2021/12/06 08:26:28;;;;;;;9.77;5.07;;;;;;;;;;5038393;28;20037;-86
2021/12/06 08:28:53;;;;;;;7.55;4.72;;;;;;;;;;5036247;28;20033;-88
2021/12/06 08:31:18;;;;;;;15.77;8.00;;;;;;;;;;5033945;28;20033;-89
2021/12/06 08:33:44;;;;;;;11.10;5.22;;;;;;;;;;5034062;28;20029;-88
2021/12/06 08:36:09;;;;;;;8.23;4.40;;;;;;;;;;5034927;28;20038;-89
2021/12/06 08:38:35;;;;;;;9.57;5.00;;;;;;;;;;5033738;28;20041;-88
2021/12/06 08:41:00;;;;;;;12.02;6.40;;;;;;;;;;5037518;28;20416;-89
2021/12/06 08:43:25;;;;;;;10.68;5.88;;;;;;;;;;5053933;28;20071;-88
2021/12/06 08:45:50;;;;;;;8.43;5.40;;;;;;;;;;5055987;28;20428;-88
2021/12/06 08:48:16;;;;;;;8.40;4.90;;;;;;;;;;5041162;28;20468;-88
2021/12/06 08:50:41;;;;;;;7.93;5.15;;;;;;;;;;5057930;28;20400;-88
2021/12/06 08:53:06;;;;;;;8.55;5.05;;;;;;;;;;5057039;28;20136;-88
2021/12/06 08:55:32;;;;;;;8.57;5.40;;;;;;;;;;5057907;28;20441;-88
2021/12/06 08:57:57;;;;;;;12.30;6.63;;;;;;;;;;5058118;28;20045;-88
2021/12/06 09:00:22;;;;;;;9.82;5.93;;;;;;;;;;5058018;28;20033;-88
2021/12/06 09:02:48;;;;;;;12.95;5.55;;;;;;;;;;5059347;28;20033;-87
2021/12/06 09:05:13;;;;;;;8.93;5.03;;;;;;;;;;5040953;28;20163;-88
2021/12/06 09:07:38;;;;;;;8.57;5.05;;;;;;;;;;5060208;28;20105;-88
2021/12/06 09:10:04;;;;;;;10.15;5.68;;;;;;;;;;5060988;28;20043;-88
2021/12/06 09:12:29;;;;;;;7.65;5.32;;;;;;;;;;5042908;28;20028;-87
2021/12/06 09:14:54;;;;;;;9.55;5.97;;;;;;;;;;5057598;28;20415;-88
2021/12/06 09:17:20;;;;;;;15.82;7.10;;;;;;;;;;5058817;28;20043;-88
2021/12/06 09:19:45;;;;;;;13.73;6.70;;;;;;;;;;5038325;28;20055;-87
2021/12/06 09:22:10;;;;;;;11.02;6.22;;;;;;;;;;5044464;28;20393;-88
2021/12/06 09:24:36;;;;;;;10.32;5.65;;;;;;;;;;5038324;28;20417;-88
2021/12/06 09:27:01;;;;;;;10.30;6.03;;;;;;;;;;5038013;28;20101;-88
2021/12/06 09:29:27;;;;;;;9.35;6.10;;;;;;;;;;5020490;28;20048;-88
2021/12/06 09:31:52;;;;;;;8.20;5.40;;;;;;;;;;5038064;28;20048;-88
2021/12/06 09:34:18;;;;;;;9.75;5.95;;;;;;;;;;5039364;28;20088;-88
2021/12/06 09:36:43;;;;;;;11.13;6.25;;;;;;;;;;5020478;28;20037;-88
2021/12/06 09:39:09;;;;;;;10.38;6.18;;;;;;;;;;5039112;28;20040;-87
2021/12/06 09:41:34;;;;;;;10.70;6.40;;;;;;;;;;5021902;28;20497;-88
2021/12/06 09:44:00;;;;;;;9.55;5.65;;;;;;;;;;5057585;28;20485;-88
2021/12/06 09:46:25;;;;;;;9.18;5.43;;;;;;;;;;5056897;28;20032;-88
2021/12/06 09:48:50;;;;;;;8.07;5.50;;;;;;;;;;5058364;28;20036;-87
2021/12/06 09:51:17;;;;;;;13.35;7.15;;;;;;;;;;5040408;28;20496;-88
2021/12/06 09:53:42;;;;;;;13.95;9.02;;;;;;;;;;5058937;28;20021;-88
2021/12/06 09:56:08;;;;;;;10.02;6.07;;;;;;;;;;5029503;28;20039;-88
2021/12/06 09:58:33;;;;;;;9.57;5.82;;;;;;;;;;5029410;28;20048;-88
2021/12/06 10:00:58;;;;;;;8.80;5.60;;;;;;;;;;5057406;28;20083;-88
2021/12/06 10:03:28;;;;;;;10.27;5.43;;;;;;;;;;5039782;28;20072;-88
2021/12/06 10:05:57;;;;;;;11.73;5.85;;;;;;;;;;5055999;28;20059;-88
2021/12/06 10:08:23;;;;;;;13.32;7.30;;;;;;;;;;5057755;28;20033;-88
2021/12/06 10:10:48;;;;;;;11.88;6.72;;;;;;;;;;5057960;28;20111;-88
2021/12/06 10:13:13;;;;;;;13.00;6.10;;;;;;;;;;5056777;28;20071;-89
2021/12/06 10:15:41;;;;;;;9.25;5.68;;;;;;;;;;5055746;28;20040;-88
2021/12/06 10:18:09;;;;;;;11.88;6.90;;;;;;;;;;5057087;28;20074;-87
2021/12/06 10:20:34;;;;;;;14.32;7.28;;;;;;;;;;5057179;28;20029;-88
2021/12/06 10:22:59;;;;;;;11.00;6.93;;;;;;;;;;5055569;28;20029;-88
2021/12/06 10:25:25;;;;;;;13.98;6.97;;;;;;;;;;5055836;28;20044;-88
2021/12/06 10:27:50;;;;;;;13.30;7.40;;;;;;;;;;5056636;28;20396;-88
2021/12/06 10:30:15;;;;;;;13.82;6.70;;;;;;;;;;5058567;28;20039;-88
2021/12/06 10:32:41;;;;;;;15.18;7.20;;;;;;;;;;5059010;28;20479;-88
2021/12/06 10:35:07;;;;;;;14.38;7.45;;;;;;;;;;5055875;28;20392;-88
2021/12/06 10:37:32;;;;;;;12.75;6.82;;;;;;;;;;5057853;28;20079;-89
2021/12/06 10:39:57;;;;;;;13.48;7.60;;;;;;;;;;5058370;28;20068;-88
2021/12/06 10:42:23;;;;;;;12.98;6.93;;;;;;;;;;5056371;28;20110;-88
2021/12/06 10:44:48;;;;;;;15.27;7.18;;;;;;;;;;5039643;28;20075;-86
2021/12/06 10:47:13;;;;;;;12.68;6.72;;;;;;;;;;5057359;28;20047;-88
2021/12/06 10:49:39;;;;;;;13.07;7.30;;;;;;;;;;5057401;28;20052;-88
2021/12/06 10:52:04;;;;;;;14.15;7.40;;;;;;;;;;5055425;28;20040;-89
2021/12/06 10:54:38;;;;;;;13.43;7.47;;;;;;;;;;5058008;28;20043;-88
2021/12/06 10:57:04;;;;;;;14.93;7.53;;;;;;;;;;5056695;28;20388;-90
2021/12/06 10:59:29;;;;;;;14.15;7.53;;;;;;;;;;5055932;28;20441;-88
2021/12/06 11:01:55;;;;;;;13.38;7.35;;;;;;;;;;5057643;28;20048;-88
2021/12/06 11:04:20;;;;;;;14.85;8.10;;;;;;;;;;5057509;28;20005;-88
2021/12/06 11:06:45;;;;;;;12.10;7.65;;;;;;;;;;5056250;28;20041;-88
2021/12/06 11:09:10;;;;;;;13.23;7.93;;;;;;;;;;5052687;28;20060;-88
2021/12/06 11:11:36;;;;;;;14.00;7.90;;;;;;;;;;5056418;28;20056;-88
2021/12/06 11:14:01;;;;;;;12.93;7.07;;;;;;;;;;5056822;28;20033;-86
2021/12/06 11:16:27;;;;;;;14.70;8.48;;;;;;;;;;5040650;28;20499;-88
2021/12/06 11:18:53;;;;;;;13.10;7.25;;;;;;;;;;5040808;28;20017;-87
2021/12/06 11:21:18;;;;;;;13.05;7.63;;;;;;;;;;5056001;28;20032;-88
2021/12/06 11:23:43;;;;;;;14.25;7.47;;;;;;;;;;5057607;28;20112;-88
2021/12/06 11:26:09;;;;;;;13.23;7.05;;;;;;;;;;5057773;28;20025;-88
2021/12/06 11:28:34;;;;;;;12.85;7.68;;;;;;;;;;5055688;28;20055;-88
2021/12/06 11:30:59;;;;;;;13.10;7.32;;;;;;;;;;5057219;28;20059;-88
2021/12/06 11:33:25;;;;;;;14.60;7.80;;;;;;;;;;5057128;28;20033;-87
2021/12/06 11:35:50;;;;;;;16.38;8.57;;;;;;;;;;5056025;28;20025;-87
2021/12/06 11:38:15;;;;;;;15.07;8.43;;;;;;;;;;5055741;28;20374;-88
2021/12/06 11:40:40;;;;;;;12.25;6.97;;;;;;;;;;5040371;28;20037;-87
2021/12/06 11:43:06;;;;;;;12.00;7.20;;;;;;;;;;5057981;28;20032;-88
2021/12/06 11:45:31;;;;;;;13.48;6.70;;;;;;;;;;5057733;28;20025;-88
2021/12/06 11:47:56;;;;;;;11.10;6.80;;;;;;;;;;5056678;28;20065;-89
2021/12/06 11:50:22;;;;;;;10.73;6.90;;;;;;;;;;5040654;28;20090;-88
2021/12/06 11:52:47;;;;;;;13.13;7.40;;;;;;;;;;5057088;28;20036;-87
2021/12/06 11:55:12;;;;;;;10.20;6.80;;;;;;;;;;5039187;28;20101;-88
2021/12/06 11:57:38;;;;;;;11.02;6.70;;;;;;;;;;5057391;28;20033;-88
2021/12/06 12:00:03;;;;;;;10.70;6.82;;;;;;;;;;5058043;28;20047;-88
2021/12/06 12:02:31;;;;;;;13.73;7.45;;;;;;;;;;5058662;28;20037;-88
2021/12/06 12:04:56;;;;;;;12.55;6.82;;;;;;;;;;5058558;28;20017;-87
2021/12/06 12:07:21;;;;;;;14.38;7.15;;;;;;;;;;5041643;28;20036;-87
2021/12/06 12:09:47;;;;;;;11.20;6.57;;;;;;;;;;5055115;28;20041;-88
2021/12/06 12:12:13;;;;;;;11.05;6.35;;;;;;;;;;5059761;28;20055;-87
2021/12/06 12:14:39;;;;;;;13.77;7.05;;;;;;;;;;5065229;28;20036;-87
2021/12/06 12:17:04;;;;;;;10.88;6.68;;;;;;;;;;5053365;28;20423;-87
2021/12/06 12:19:29;;;;;;;12.00;6.32;;;;;;;;;;5065623;28;20065;-87
2021/12/06 12:21:55;;;;;;;10.10;6.38;;;;;;;;;;5058389;28;20392;-87
2021/12/06 12:24:20;;;;;;;12.45;6.95;;;;;;;;;;5064384;28;20491;-87
2021/12/06 12:26:56;;;;;;;13.68;6.75;;;;;;;;;;5060850;28;20552;-87
2021/12/06 12:29:26;;;;;;;12.75;7.15;;;;;;;;;;5060566;28;20032;-87
2021/12/06 12:31:52;;;;;;;17.50;7.57;;;;;;;;;;5059215;28;20112;-88
2021/12/06 12:34:17;;;;;;;13.98;7.45;;;;;;;;;;5058331;28;20484;-87
2021/12/06 12:36:43;;;;;;;12.98;7.80;;;;;;;;;;5059380;28;20429;-87
2021/12/06 12:39:08;;;;;;;14.85;8.68;;;;;;;;;;5042764;28;20529;-88
2021/12/06 12:41:34;;;;;;;12.63;7.80;;;;;;;;;;5052335;28;20473;-87
2021/12/06 12:44:00;;;;;;;17.15;9.10;;;;;;;;;;5038377;28;20168;-88
2021/12/06 12:46:25;;;;;;;14.02;8.02;;;;;;;;;;5038555;28;20075;-87
2021/12/06 12:48:50;;;;;;;14.00;7.75;;;;;;;;;;5038144;28;20030;-88
2021/12/06 12:51:16;;;;;;;12.85;7.13;;;;;;;;;;5050922;28;20020;-86
2021/12/06 12:53:41;;;;;;;11.20;7.40;;;;;;;;;;5051992;28;20521;-86
2021/12/06 12:56:06;;;;;;;13.52;8.20;;;;;;;;;;5045793;28;20029;-86
2021/12/06 12:58:35;;;;;;;14.65;8.63;;;;;;;;;;5058558;28;20099;-87
2021/12/06 13:01:03;;;;;;;14.82;8.20;;;;;;;;;;5058667;28;20477;-87
2021/12/06 13:03:29;;;;;;;14.52;8.43;;;;;;;;;;5041847;28;20068;-86
2021/12/06 13:05:54;;;;;;;13.98;7.68;;;;;;;;;;5058426;28;20051;-87
2021/12/06 13:08:19;;;;;;;12.38;7.40;;;;;;;;;;5057927;28;20033;-87
2021/12/06 13:10:45;;;;;;;15.93;8.18;;;;;;;;;;5058172;28;20052;-87
2021/12/06 13:13:15;;;;;;;11.60;7.22;;;;;;;;;;5059396;28;20036;-86
2021/12/06 13:15:52;;;;;;;15.68;8.48;;;;;;;;;;5057841;28;20045;-87
2021/12/06 13:18:17;;;;;;;15.48;8.93;;;;;;;;;;5052250;28;20440;-87
2021/12/06 13:20:43;;;;;;;13.18;7.90;;;;;;;;;;5051919;28;20485;-86
2021/12/06 13:23:08;;;;;;;13.57;7.55;;;;;;;;;;5058967;28;20091;-86
2021/12/06 13:25:33;;;;;;;11.15;6.72;;;;;;;;;;5057019;28;20029;-87
2021/12/06 13:28:03;;;;;;;13.15;7.60;;;;;;;;;;5056989;28;20039;-88
2021/12/06 13:30:31;;;;;;;14.40;7.88;;;;;;;;;;5056932;28;20373;-88
2021/12/06 13:32:58;;;;;;;10.68;6.75;;;;;;;;;;5060304;28;20040;-87
2021/12/06 13:35:23;;;;;;;11.75;7.18;;;;;;;;;;5058018;28;20045;-88
2021/12/06 13:37:49;;;;;;;15.38;7.55;;;;;;;;;;5057000;28;20037;-88
2021/12/06 13:40:14;;;;;;;12.75;7.47;;;;;;;;;;5058714;28;20325;-88
2021/12/06 13:42:39;;;;;;;12.65;7.78;;;;;;;;;;5057043;28;20170;-87
2021/12/06 13:45:06;;;;;;;13.57;7.85;;;;;;;;;;5057177;28;20029;-88
2021/12/06 13:47:31;;;;;;;13.07;7.85;;;;;;;;;;5040057;28;20037;-87
2021/12/06 13:49:57;;;;;;;15.57;8.02;;;;;;;;;;5058270;28;20157;-88
2021/12/06 13:52:22;;;;;;;16.83;7.63;;;;;;;;;;5040892;28;20381;-88
2021/12/06 13:54:47;;;;;;;14.90;8.32;;;;;;;;;;5058081;28;20063;-86
2021/12/06 13:57:15;;;;;;;14.27;8.20;;;;;;;;;;5056548;28;20029;-88
2021/12/06 13:59:41;;;;;;;14.77;8.32;;;;;;;;;;5056645;28;20029;-87
2021/12/06 14:02:07;;;;;;;15.75;7.97;;;;;;;;;;5057242;28;20097;-87
2021/12/06 14:04:32;;;;;;;15.10;8.85;;;;;;;;;;5057979;28;20106;-87
2021/12/06 14:07:01;;;;;;;15.13;8.90;;;;;;;;;;5057766;28;20380;-87
2021/12/06 14:09:26;;;;;;;16.10;8.95;;;;;;;;;;5057575;28;20089;-88
2021/12/06 14:11:53;;;;;;;16.52;9.07;;;;;;;;;;5056322;28;20112;-87
2021/12/06 14:14:18;;;;;;;16.48;8.63;;;;;;;;;;5039782;28;20036;-86
2021/12/06 14:16:43;;;;;;;16.50;9.07;;;;;;;;;;5055412;28;20098;-88
2021/12/06 14:19:08;;;;;;;19.20;9.95;;;;;;;;;;5039511;28;20102;-87
2021/12/06 14:21:34;;;;;;;18.70;10.07;;;;;;;;;;5055461;28;20443;-88
2021/12/06 14:23:59;;;;;;;18.27;9.52;;;;;;;;;;5055787;28;20449;-87
2021/12/06 14:26:25;;;;;;;17.77;9.82;;;;;;;;;;5055523;28;20041;-86
2021/12/06 14:28:50;;;;;;;20.63;9.43;;;;;;;;;;5045338;28;20032;-87
2021/12/06 14:31:15;;;;;;;16.38;8.75;;;;;;;;;;5052092;28;20033;-88
2021/12/06 14:33:41;;;;;;;16.88;8.90;;;;;;;;;;5039757;28;20029;-89
2021/12/06 14:36:09;;;;;;;16.50;8.88;;;;;;;;;;5055585;28;20021;-87
2021/12/06 14:38:34;;;;;;;16.25;9.00;;;;;;;;;;5055374;28;20044;-88